sensor_id;sensor_type;location;lat;lon;timestamp;temperature;humidity
27954;DHT22;15290;48.148;17.106;2022-12-20T00:00:51;1.20;99.90
27954;DHT22;15290;48.148;17.106;2022-12-20T00:03:17;1.20;99.90
27954;DHT22;15290;48.148;17.106;2022-12-20T00:05:45;1.20;99.90
27954;DHT22;15290;48.148;17.106;2022-12-20T00:08:11;1.20;99.90
27954;DHT22;15290;48.148;17.106;2022-12-20T00:10:38;1.10;99.90
27954;DHT22;15290;48.148;17.106;2022-12-20T00:13:05;1.10;99.90
27954;DHT22;15290;48.148;17.106;2022-12-20T00:15:31;1.10;99.90
27954;DHT22;15290;48.148;17.106;2022-12-20T00:17:57;1.10;99.90
27954;DHT22;15290;48.148;17.106;2022-12-20T00:20:23;1.10;99.90
27954;DHT22;15290;48.148;17.106;2022-12-20T00:22:49;1.10;99.90
27954;DHT22;15290;48.148;17.106;2022-12-20T00:25:15;1.10;99.90
27954;DHT22;15290;48.148;17.106;2022-12-20T00:27:40;1.10;99.90
27954;DHT22;15290;48.148;17.106;2022-12-20T00:30:07;1.10;99.90
27954;DHT22;15290;48.148;17.106;2022-12-20T00:32:33;1.10;99.90
27954;DHT22;15290;48.148;17.106;2022-12-20T00:34:59;1.10;99.90
27954;DHT22;15290;48.148;17.106;2022-12-20T00:37:24;1.20;99.90
27954;DHT22;15290;48.148;17.106;2022-12-20T00:39:50;1.20;99.90
27954;DHT22;15290;48.148;17.106;2022-12-20T00:42:15;1.20;99.90
27954;DHT22;15290;48.148;17.106;2022-12-20T00:44:41;1.20;99.90
27954;DHT22;15290;48.148;17.106;2022-12-20T00:47:07;1.20;99.90
27954;DHT22;15290;48.148;17.106;2022-12-20T00:49:32;1.20;99.90
27954;DHT22;15290;48.148;17.106;2022-12-20T00:51:58;1.20;99.90
27954;DHT22;15290;48.148;17.106;2022-12-20T00:54:24;1.20;99.90
27954;DHT22;15290;48.148;17.106;2022-12-20T00:56:50;1.20;99.90
27954;DHT22;15290;48.148;17.106;2022-12-20T00:59:15;1.20;99.90
27954;DHT22;15290;48.148;17.106;2022-12-20T01:01:41;1.20;99.90
27954;DHT22;15290;48.148;17.106;2022-12-20T01:04:07;1.20;99.90
27954;DHT22;15290;48.148;17.106;2022-12-20T01:06:33;1.20;99.90
27954;DHT22;15290;48.148;17.106;2022-12-20T01:08:59;1.20;99.90
27954;DHT22;15290;48.148;17.106;2022-12-20T01:11:31;1.20;99.90
27954;DHT22;15290;48.148;17.106;2022-12-20T01:14:02;1.20;99.90
27954;DHT22;15290;48.148;17.106;2022-12-20T01:16:35;1.20;99.90
27954;DHT22;15290;48.148;17.106;2022-12-20T01:19:01;1.20;99.90
27954;DHT22;15290;48.148;17.106;2022-12-20T01:21:27;1.20;99.90
27954;DHT22;15290;48.148;17.106;2022-12-20T01:23:53;1.30;99.90
27954;DHT22;15290;48.148;17.106;2022-12-20T01:26:21;1.30;99.90
27954;DHT22;15290;48.148;17.106;2022-12-20T01:28:50;1.30;99.90
27954;DHT22;15290;48.148;17.106;2022-12-20T01:31:19;1.30;99.90
27954;DHT22;15290;48.148;17.106;2022-12-20T01:33:46;1.30;99.90
27954;DHT22;15290;48.148;17.106;2022-12-20T01:36:23;1.30;99.90
27954;DHT22;15290;48.148;17.106;2022-12-20T01:38:50;1.20;99.90
27954;DHT22;15290;48.148;17.106;2022-12-20T01:41:21;1.20;99.90
27954;DHT22;15290;48.148;17.106;2022-12-20T01:43:56;1.20;99.90
27954;DHT22;15290;48.148;17.106;2022-12-20T01:46:33;1.20;99.90
27954;DHT22;15290;48.148;17.106;2022-12-20T01:51:49;1.20;99.90
27954;DHT22;15290;48.148;17.106;2022-12-20T01:54:35;1.20;99.90
27954;DHT22;15290;48.148;17.106;2022-12-20T01:57:15;1.20;99.90
27954;DHT22;15290;48.148;17.106;2022-12-20T01:59:45;1.30;99.90
27954;DHT22;15290;48.148;17.106;2022-12-20T02:02:11;1.30;99.90
27954;DHT22;15290;48.148;17.106;2022-12-20T02:04:38;1.30;99.90
27954;DHT22;15290;48.148;17.106;2022-12-20T02:07:04;1.30;99.90
27954;DHT22;15290;48.148;17.106;2022-12-20T02:09:31;1.30;99.90
27954;DHT22;15290;48.148;17.106;2022-12-20T02:28:32;1.30;99.90
27954;DHT22;15290;48.148;17.106;2022-12-20T02:31:10;1.30;99.90
27954;DHT22;15290;48.148;17.106;2022-12-20T02:33:41;1.30;99.90
27954;DHT22;15290;48.148;17.106;2022-12-20T02:36:07;1.30;99.90
27954;DHT22;15290;48.148;17.106;2022-12-20T02:38:36;1.40;99.90
27954;DHT22;15290;48.148;17.106;2022-12-20T02:43:32;1.40;99.90
27954;DHT22;15290;48.148;17.106;2022-12-20T02:46:19;1.40;99.90
27954;DHT22;15290;48.148;17.106;2022-12-20T02:48:46;1.30;99.90
27954;DHT22;15290;48.148;17.106;2022-12-20T02:51:14;1.30;99.90
27954;DHT22;15290;48.148;17.106;2022-12-20T02:53:41;1.40;99.90
27954;DHT22;15290;48.148;17.106;2022-12-20T02:56:28;1.40;99.90
27954;DHT22;15290;48.148;17.106;2022-12-20T02:59:11;1.40;99.90
27954;DHT22;15290;48.148;17.106;2022-12-20T03:01:46;1.40;99.90
27954;DHT22;15290;48.148;17.106;2022-12-20T03:04:13;1.40;99.90
27954;DHT22;15290;48.148;17.106;2022-12-20T03:06:55;1.40;99.90
27954;DHT22;15290;48.148;17.106;2022-12-20T03:09:21;1.40;99.90
27954;DHT22;15290;48.148;17.106;2022-12-20T03:11:46;1.40;99.90
27954;DHT22;15290;48.148;17.106;2022-12-20T03:14:12;1.40;99.90
27954;DHT22;15290;48.148;17.106;2022-12-20T03:16:38;1.40;99.90
27954;DHT22;15290;48.148;17.106;2022-12-20T03:19:04;1.40;99.90
27954;DHT22;15290;48.148;17.106;2022-12-20T03:21:29;1.40;99.90
27954;DHT22;15290;48.148;17.106;2022-12-20T03:23:56;1.30;99.90
27954;DHT22;15290;48.148;17.106;2022-12-20T03:26:22;1.40;99.90
27954;DHT22;15290;48.148;17.106;2022-12-20T03:28:48;1.40;99.90
27954;DHT22;15290;48.148;17.106;2022-12-20T03:31:13;1.40;99.90
27954;DHT22;15290;48.148;17.106;2022-12-20T03:33:39;1.30;99.90
27954;DHT22;15290;48.148;17.106;2022-12-20T03:36:05;1.30;99.90
27954;DHT22;15290;48.148;17.106;2022-12-20T03:38:31;1.30;99.90
27954;DHT22;15290;48.148;17.106;2022-12-20T03:40:56;1.30;99.90
27954;DHT22;15290;48.148;17.106;2022-12-20T03:43:22;1.30;99.90
27954;DHT22;15290;48.148;17.106;2022-12-20T03:45:48;1.30;99.90
27954;DHT22;15290;48.148;17.106;2022-12-20T03:48:13;1.30;99.90
27954;DHT22;15290;48.148;17.106;2022-12-20T03:50:40;1.30;99.90
27954;DHT22;15290;48.148;17.106;2022-12-20T03:53:06;1.30;99.90
27954;DHT22;15290;48.148;17.106;2022-12-20T03:55:31;1.30;99.90
27954;DHT22;15290;48.148;17.106;2022-12-20T03:57:57;1.30;99.90
27954;DHT22;15290;48.148;17.106;2022-12-20T04:00:23;1.30;99.90
27954;DHT22;15290;48.148;17.106;2022-12-20T04:02:48;1.40;99.90
27954;DHT22;15290;48.148;17.106;2022-12-20T04:05:14;1.30;99.90
27954;DHT22;15290;48.148;17.106;2022-12-20T04:07:42;1.30;99.90
27954;DHT22;15290;48.148;17.106;2022-12-20T04:10:10;1.30;99.90
27954;DHT22;15290;48.148;17.106;2022-12-20T04:12:36;1.30;99.90
27954;DHT22;15290;48.148;17.106;2022-12-20T04:15:03;1.20;99.90
27954;DHT22;15290;48.148;17.106;2022-12-20T04:17:28;1.20;99.90
27954;DHT22;15290;48.148;17.106;2022-12-20T04:19:54;1.20;99.90
27954;DHT22;15290;48.148;17.106;2022-12-20T04:22:20;1.20;99.90
27954;DHT22;15290;48.148;17.106;2022-12-20T04:24:46;1.20;99.90
27954;DHT22;15290;48.148;17.106;2022-12-20T04:27:12;1.20;99.90
27954;DHT22;15290;48.148;17.106;2022-12-20T04:29:37;1.20;99.90
27954;DHT22;15290;48.148;17.106;2022-12-20T04:32:04;1.20;99.90
27954;DHT22;15290;48.148;17.106;2022-12-20T04:34:30;1.20;99.90
27954;DHT22;15290;48.148;17.106;2022-12-20T04:36:56;1.20;99.90
27954;DHT22;15290;48.148;17.106;2022-12-20T04:39:21;1.20;99.90
27954;DHT22;15290;48.148;17.106;2022-12-20T04:41:47;1.20;99.90
27954;DHT22;15290;48.148;17.106;2022-12-20T04:44:13;1.20;99.90
27954;DHT22;15290;48.148;17.106;2022-12-20T04:46:41;1.20;99.90
27954;DHT22;15290;48.148;17.106;2022-12-20T04:49:07;1.20;99.90
27954;DHT22;15290;48.148;17.106;2022-12-20T04:51:32;1.20;99.90
27954;DHT22;15290;48.148;17.106;2022-12-20T04:53:58;1.20;99.90
27954;DHT22;15290;48.148;17.106;2022-12-20T04:56:26;1.20;99.90
27954;DHT22;15290;48.148;17.106;2022-12-20T04:58:55;1.20;99.90
27954;DHT22;15290;48.148;17.106;2022-12-20T05:01:23;1.20;99.90
27954;DHT22;15290;48.148;17.106;2022-12-20T05:03:49;1.20;99.90
27954;DHT22;15290;48.148;17.106;2022-12-20T05:06:15;1.20;99.90
27954;DHT22;15290;48.148;17.106;2022-12-20T05:08:42;1.20;99.90
27954;DHT22;15290;48.148;17.106;2022-12-20T05:11:08;1.10;99.90
27954;DHT22;15290;48.148;17.106;2022-12-20T05:13:34;1.10;99.90
27954;DHT22;15290;48.148;17.106;2022-12-20T05:16:00;1.10;99.90
27954;DHT22;15290;48.148;17.106;2022-12-20T05:18:26;1.10;99.90
27954;DHT22;15290;48.148;17.106;2022-12-20T05:20:59;1.10;99.90
27954;DHT22;15290;48.148;17.106;2022-12-20T05:23:45;1.00;99.90
27954;DHT22;15290;48.148;17.106;2022-12-20T05:26:32;1.10;99.90
27954;DHT22;15290;48.148;17.106;2022-12-20T05:28:58;1.10;99.90
27954;DHT22;15290;48.148;17.106;2022-12-20T05:31:24;1.10;99.90
27954;DHT22;15290;48.148;17.106;2022-12-20T05:33:51;1.10;99.90
27954;DHT22;15290;48.148;17.106;2022-12-20T05:36:17;1.10;99.90
27954;DHT22;15290;48.148;17.106;2022-12-20T05:38:44;1.10;99.90
27954;DHT22;15290;48.148;17.106;2022-12-20T05:41:10;1.00;99.90
27954;DHT22;15290;48.148;17.106;2022-12-20T05:43:36;1.10;99.90
27954;DHT22;15290;48.148;17.106;2022-12-20T05:46:02;1.10;99.90
27954;DHT22;15290;48.148;17.106;2022-12-20T05:48:27;1.00;99.90
27954;DHT22;15290;48.148;17.106;2022-12-20T05:50:53;1.00;99.90
27954;DHT22;15290;48.148;17.106;2022-12-20T05:53:20;1.00;99.90
27954;DHT22;15290;48.148;17.106;2022-12-20T05:55:48;1.00;99.90
27954;DHT22;15290;48.148;17.106;2022-12-20T05:58:15;1.00;99.90
27954;DHT22;15290;48.148;17.106;2022-12-20T06:00:42;1.00;99.90
27954;DHT22;15290;48.148;17.106;2022-12-20T06:03:10;1.00;99.90
27954;DHT22;15290;48.148;17.106;2022-12-20T06:05:37;0.90;99.90
27954;DHT22;15290;48.148;17.106;2022-12-20T06:08:04;0.90;99.90
27954;DHT22;15290;48.148;17.106;2022-12-20T06:10:31;0.90;99.90
27954;DHT22;15290;48.148;17.106;2022-12-20T06:12:57;1.00;99.90
27954;DHT22;15290;48.148;17.106;2022-12-20T06:15:23;1.00;99.90
27954;DHT22;15290;48.148;17.106;2022-12-20T06:17:48;1.00;99.90
27954;DHT22;15290;48.148;17.106;2022-12-20T06:20:14;1.00;99.90
27954;DHT22;15290;48.148;17.106;2022-12-20T06:22:39;1.00;99.90
27954;DHT22;15290;48.148;17.106;2022-12-20T06:25:06;1.00;99.90
27954;DHT22;15290;48.148;17.106;2022-12-20T06:27:34;1.00;99.90
27954;DHT22;15290;48.148;17.106;2022-12-20T06:30:00;1.10;99.90
27954;DHT22;15290;48.148;17.106;2022-12-20T06:32:26;1.10;99.90
27954;DHT22;15290;48.148;17.106;2022-12-20T06:34:52;1.10;99.90
27954;DHT22;15290;48.148;17.106;2022-12-20T06:37:17;1.10;99.90
27954;DHT22;15290;48.148;17.106;2022-12-20T06:39:43;1.10;99.90
27954;DHT22;15290;48.148;17.106;2022-12-20T06:42:09;1.00;99.90
27954;DHT22;15290;48.148;17.106;2022-12-20T06:44:34;1.10;99.90
27954;DHT22;15290;48.148;17.106;2022-12-20T06:47:02;1.10;99.90
27954;DHT22;15290;48.148;17.106;2022-12-20T06:49:27;1.10;99.90
27954;DHT22;15290;48.148;17.106;2022-12-20T06:51:55;1.10;99.90
27954;DHT22;15290;48.148;17.106;2022-12-20T06:54:21;1.10;99.90
27954;DHT22;15290;48.148;17.106;2022-12-20T06:56:47;1.10;99.90
27954;DHT22;15290;48.148;17.106;2022-12-20T06:59:12;1.10;99.90
27954;DHT22;15290;48.148;17.106;2022-12-20T07:01:38;1.10;99.90
27954;DHT22;15290;48.148;17.106;2022-12-20T07:04:04;1.10;99.90
27954;DHT22;15290;48.148;17.106;2022-12-20T07:06:29;1.10;99.90
27954;DHT22;15290;48.148;17.106;2022-12-20T07:08:55;1.20;99.90
27954;DHT22;15290;48.148;17.106;2022-12-20T07:11:21;1.10;99.90
27954;DHT22;15290;48.148;17.106;2022-12-20T07:13:46;1.20;99.90
27954;DHT22;15290;48.148;17.106;2022-12-20T07:16:12;1.20;99.90
27954;DHT22;15290;48.148;17.106;2022-12-20T07:18:39;1.10;99.90
27954;DHT22;15290;48.148;17.106;2022-12-20T07:21:05;1.10;99.90
27954;DHT22;15290;48.148;17.106;2022-12-20T07:23:31;1.10;99.90
27954;DHT22;15290;48.148;17.106;2022-12-20T07:25:59;1.20;99.90
27954;DHT22;15290;48.148;17.106;2022-12-20T07:28:26;1.10;99.90
27954;DHT22;15290;48.148;17.106;2022-12-20T07:30:52;1.10;99.90
27954;DHT22;15290;48.148;17.106;2022-12-20T07:33:20;1.20;99.90
27954;DHT22;15290;48.148;17.106;2022-12-20T07:35:46;1.20;99.90
27954;DHT22;15290;48.148;17.106;2022-12-20T07:38:12;1.20;99.90
27954;DHT22;15290;48.148;17.106;2022-12-20T07:40:42;1.20;99.90
27954;DHT22;15290;48.148;17.106;2022-12-20T07:43:08;1.20;99.90
27954;DHT22;15290;48.148;17.106;2022-12-20T07:45:35;1.20;99.90
27954;DHT22;15290;48.148;17.106;2022-12-20T07:48:03;1.20;99.90
27954;DHT22;15290;48.148;17.106;2022-12-20T07:50:29;1.20;99.90
27954;DHT22;15290;48.148;17.106;2022-12-20T07:52:56;1.20;99.90
27954;DHT22;15290;48.148;17.106;2022-12-20T07:55:23;1.20;99.90
27954;DHT22;15290;48.148;17.106;2022-12-20T07:57:55;1.20;99.90
27954;DHT22;15290;48.148;17.106;2022-12-20T08:00:23;1.20;99.90
27954;DHT22;15290;48.148;17.106;2022-12-20T08:03:22;1.20;99.90
27954;DHT22;15290;48.148;17.106;2022-12-20T08:05:53;1.20;99.90
27954;DHT22;15290;48.148;17.106;2022-12-20T08:08:20;1.30;99.90
27954;DHT22;15290;48.148;17.106;2022-12-20T08:10:47;1.30;99.90
27954;DHT22;15290;48.148;17.106;2022-12-20T08:13:14;1.30;99.90
27954;DHT22;15290;48.148;17.106;2022-12-20T08:15:39;1.30;99.90
27954;DHT22;15290;48.148;17.106;2022-12-20T08:18:05;1.30;99.90
27954;DHT22;15290;48.148;17.106;2022-12-20T08:20:31;1.30;99.90
27954;DHT22;15290;48.148;17.106;2022-12-20T08:22:57;1.30;99.90
27954;DHT22;15290;48.148;17.106;2022-12-20T08:25:23;1.30;99.90
27954;DHT22;15290;48.148;17.106;2022-12-20T08:27:49;1.40;99.90
27954;DHT22;15290;48.148;17.106;2022-12-20T08:30:15;1.40;99.90
27954;DHT22;15290;48.148;17.106;2022-12-20T08:32:41;1.40;99.90
27954;DHT22;15290;48.148;17.106;2022-12-20T08:35:08;1.40;99.90
27954;DHT22;15290;48.148;17.106;2022-12-20T08:37:35;1.40;99.90
27954;DHT22;15290;48.148;17.106;2022-12-20T08:40:01;1.40;99.90
27954;DHT22;15290;48.148;17.106;2022-12-20T08:42:28;1.40;99.90
27954;DHT22;15290;48.148;17.106;2022-12-20T08:44:54;1.40;99.90
27954;DHT22;15290;48.148;17.106;2022-12-20T08:47:20;1.40;99.90
27954;DHT22;15290;48.148;17.106;2022-12-20T08:49:46;1.40;99.90
27954;DHT22;15290;48.148;17.106;2022-12-20T08:52:11;1.40;99.90
27954;DHT22;15290;48.148;17.106;2022-12-20T08:54:37;1.40;99.90
27954;DHT22;15290;48.148;17.106;2022-12-20T08:57:04;1.50;99.90
27954;DHT22;15290;48.148;17.106;2022-12-20T08:59:31;1.50;99.90
27954;DHT22;15290;48.148;17.106;2022-12-20T09:01:57;1.50;99.90
27954;DHT22;15290;48.148;17.106;2022-12-20T09:04:24;1.50;99.90
27954;DHT22;15290;48.148;17.106;2022-12-20T09:06:50;1.50;99.90
27954;DHT22;15290;48.148;17.106;2022-12-20T09:09:16;1.50;99.90
27954;DHT22;15290;48.148;17.106;2022-12-20T09:11:41;1.50;99.90
27954;DHT22;15290;48.148;17.106;2022-12-20T09:14:09;1.50;99.90
27954;DHT22;15290;48.148;17.106;2022-12-20T09:16:36;1.40;99.90
27954;DHT22;15290;48.148;17.106;2022-12-20T09:19:02;1.40;99.90
27954;DHT22;15290;48.148;17.106;2022-12-20T09:21:28;1.30;99.90
27954;DHT22;15290;48.148;17.106;2022-12-20T09:23:58;1.30;99.90
27954;DHT22;15290;48.148;17.106;2022-12-20T09:26:25;1.40;99.90
27954;DHT22;15290;48.148;17.106;2022-12-20T09:28:51;1.40;99.90
27954;DHT22;15290;48.148;17.106;2022-12-20T09:31:19;1.40;99.90
27954;DHT22;15290;48.148;17.106;2022-12-20T09:33:45;1.40;99.90
27954;DHT22;15290;48.148;17.106;2022-12-20T09:36:13;1.30;99.90
27954;DHT22;15290;48.148;17.106;2022-12-20T09:38:39;1.30;99.90
27954;DHT22;15290;48.148;17.106;2022-12-20T09:41:14;1.30;99.90
27954;DHT22;15290;48.148;17.106;2022-12-20T09:43:41;1.40;99.90
27954;DHT22;15290;48.148;17.106;2022-12-20T09:46:13;1.40;99.90
27954;DHT22;15290;48.148;17.106;2022-12-20T09:48:50;1.40;99.90
27954;DHT22;15290;48.148;17.106;2022-12-20T09:56:53;1.50;99.90
27954;DHT22;15290;48.148;17.106;2022-12-20T09:59:22;1.50;99.90
27954;DHT22;15290;48.148;17.106;2022-12-20T10:01:48;1.50;99.90
27954;DHT22;15290;48.148;17.106;2022-12-20T10:04:29;1.50;99.90
27954;DHT22;15290;48.148;17.106;2022-12-20T10:10:09;1.50;99.90
27954;DHT22;15290;48.148;17.106;2022-12-20T10:13:04;1.50;99.90
27954;DHT22;15290;48.148;17.106;2022-12-20T10:19:07;1.50;99.90
27954;DHT22;15290;48.148;17.106;2022-12-20T10:24:32;1.50;99.90
27954;DHT22;15290;48.148;17.106;2022-12-20T10:27:11;1.50;99.90
27954;DHT22;15290;48.148;17.106;2022-12-20T10:29:39;1.50;99.90
27954;DHT22;15290;48.148;17.106;2022-12-20T10:32:14;1.50;99.90
27954;DHT22;15290;48.148;17.106;2022-12-20T10:34:54;1.60;99.90
27954;DHT22;15290;48.148;17.106;2022-12-20T10:37:22;1.60;99.90
27954;DHT22;15290;48.148;17.106;2022-12-20T10:39:50;1.60;99.90
27954;DHT22;15290;48.148;17.106;2022-12-20T10:42:37;1.60;99.90
27954;DHT22;15290;48.148;17.106;2022-12-20T10:47:45;1.60;99.90
27954;DHT22;15290;48.148;17.106;2022-12-20T10:55:41;1.60;99.90
27954;DHT22;15290;48.148;17.106;2022-12-20T11:01:04;1.60;99.90
27954;DHT22;15290;48.148;17.106;2022-12-20T11:03:30;1.60;99.90
27954;DHT22;15290;48.148;17.106;2022-12-20T11:06:01;1.60;99.90
27954;DHT22;15290;48.148;17.106;2022-12-20T11:08:30;1.60;99.90
27954;DHT22;15290;48.148;17.106;2022-12-20T11:13:43;1.60;99.90
27954;DHT22;15290;48.148;17.106;2022-12-20T11:16:36;1.60;99.90
27954;DHT22;15290;48.148;17.106;2022-12-20T11:24:43;1.60;99.90
27954;DHT22;15290;48.148;17.106;2022-12-20T11:27:38;1.60;99.90
27954;DHT22;15290;48.148;17.106;2022-12-20T11:30:18;1.60;99.90
27954;DHT22;15290;48.148;17.106;2022-12-20T11:38:37;1.60;99.90
27954;DHT22;15290;48.148;17.106;2022-12-20T11:44:35;1.60;99.90
27954;DHT22;15290;48.148;17.106;2022-12-20T11:49:57;1.60;99.90
27954;DHT22;15290;48.148;17.106;2022-12-20T11:55:21;1.60;99.90
27954;DHT22;15290;48.148;17.106;2022-12-20T11:58:29;1.60;99.90
27954;DHT22;15290;48.148;17.106;2022-12-20T12:01:03;1.60;99.90
27954;DHT22;15290;48.148;17.106;2022-12-20T12:04:01;1.60;99.90
27954;DHT22;15290;48.148;17.106;2022-12-20T12:06:35;1.70;99.90
27954;DHT22;15290;48.148;17.106;2022-12-20T12:09:15;1.60;99.90
27954;DHT22;15290;48.148;17.106;2022-12-20T12:17:12;1.60;99.90
27954;DHT22;15290;48.148;17.106;2022-12-20T12:19:45;1.70;99.90
27954;DHT22;15290;48.148;17.106;2022-12-20T12:22:26;1.70;99.90
27954;DHT22;15290;48.148;17.106;2022-12-20T12:24:57;1.70;99.90
27954;DHT22;15290;48.148;17.106;2022-12-20T12:27:26;1.70;99.90
27954;DHT22;15290;48.148;17.106;2022-12-20T12:29:54;1.70;99.90
27954;DHT22;15290;48.148;17.106;2022-12-20T12:32:29;1.70;99.90
27954;DHT22;15290;48.148;17.106;2022-12-20T12:35:07;1.70;99.90
27954;DHT22;15290;48.148;17.106;2022-12-20T12:43:29;1.60;99.90
27954;DHT22;15290;48.148;17.106;2022-12-20T12:46:14;1.60;99.90
27954;DHT22;15290;48.148;17.106;2022-12-20T12:49:10;1.60;99.90
27954;DHT22;15290;48.148;17.106;2022-12-20T12:51:40;1.70;99.90
27954;DHT22;15290;48.148;17.106;2022-12-20T12:56:45;1.60;99.90
27954;DHT22;15290;48.148;17.106;2022-12-20T13:01:52;1.60;99.90
27954;DHT22;15290;48.148;17.106;2022-12-20T13:10:00;1.60;99.90
27954;DHT22;15290;48.148;17.106;2022-12-20T13:18:16;1.70;99.90
27954;DHT22;15290;48.148;17.106;2022-12-20T13:20:42;1.70;99.90
27954;DHT22;15290;48.148;17.106;2022-12-20T13:23:28;1.70;99.90
27954;DHT22;15290;48.148;17.106;2022-12-20T13:25:56;1.70;99.90
27954;DHT22;15290;48.148;17.106;2022-12-20T13:33:42;1.70;99.90
27954;DHT22;15290;48.148;17.106;2022-12-20T13:54:02;1.70;99.90
27954;DHT22;15290;48.148;17.106;2022-12-20T13:56:48;1.70;99.90
27954;DHT22;15290;48.148;17.106;2022-12-20T13:59:30;1.70;99.90
27954;DHT22;15290;48.148;17.106;2022-12-20T14:02:03;1.70;99.90
27954;DHT22;15290;48.148;17.106;2022-12-20T14:04:41;1.60;99.90
27954;DHT22;15290;48.148;17.106;2022-12-20T14:07:13;1.60;99.90
27954;DHT22;15290;48.148;17.106;2022-12-20T14:09:44;1.60;99.90
27954;DHT22;15290;48.148;17.106;2022-12-20T14:12:13;1.60;99.90
27954;DHT22;15290;48.148;17.106;2022-12-20T14:14:45;1.60;99.90
27954;DHT22;15290;48.148;17.106;2022-12-20T14:19:40;1.60;99.90
27954;DHT22;15290;48.148;17.106;2022-12-20T14:22:10;1.50;99.90
27954;DHT22;15290;48.148;17.106;2022-12-20T14:24:42;1.60;99.90
27954;DHT22;15290;48.148;17.106;2022-12-20T14:27:12;1.50;99.90
27954;DHT22;15290;48.148;17.106;2022-12-20T14:29:39;1.60;99.90
27954;DHT22;15290;48.148;17.106;2022-12-20T14:32:05;1.60;99.90
27954;DHT22;15290;48.148;17.106;2022-12-20T14:34:33;1.60;99.90
27954;DHT22;15290;48.148;17.106;2022-12-20T14:37:29;1.50;99.90
27954;DHT22;15290;48.148;17.106;2022-12-20T14:40:17;1.50;99.90
27954;DHT22;15290;48.148;17.106;2022-12-20T14:42:44;1.50;99.90
27954;DHT22;15290;48.148;17.106;2022-12-20T14:47:48;1.60;99.90
27954;DHT22;15290;48.148;17.106;2022-12-20T14:50:31;1.60;99.90
27954;DHT22;15290;48.148;17.106;2022-12-20T14:52:58;1.50;99.90
27954;DHT22;15290;48.148;17.106;2022-12-20T14:55:37;1.60;99.90
27954;DHT22;15290;48.148;17.106;2022-12-20T14:58:26;1.60;99.90
27954;DHT22;15290;48.148;17.106;2022-12-20T15:03:56;1.60;99.90
27954;DHT22;15290;48.148;17.106;2022-12-20T15:06:40;1.60;99.90
27954;DHT22;15290;48.148;17.106;2022-12-20T15:09:09;1.60;99.90
27954;DHT22;15290;48.148;17.106;2022-12-20T15:11:36;1.50;99.90
27954;DHT22;15290;48.148;17.106;2022-12-20T15:16:57;1.60;99.90
27954;DHT22;15290;48.148;17.106;2022-12-20T15:19:42;1.60;99.90
27954;DHT22;15290;48.148;17.106;2022-12-20T15:22:16;1.50;99.90
27954;DHT22;15290;48.148;17.106;2022-12-20T15:24:42;1.50;99.90
27954;DHT22;15290;48.148;17.106;2022-12-20T15:27:13;1.50;99.90
27954;DHT22;15290;48.148;17.106;2022-12-20T15:29:39;1.50;99.90
27954;DHT22;15290;48.148;17.106;2022-12-20T15:32:13;1.50;99.90
27954;DHT22;15290;48.148;17.106;2022-12-20T15:34:42;1.40;99.90
27954;DHT22;15290;48.148;17.106;2022-12-20T15:37:10;1.40;99.90
27954;DHT22;15290;48.148;17.106;2022-12-20T15:39:39;1.40;99.90
27954;DHT22;15290;48.148;17.106;2022-12-20T15:42:05;1.50;99.90
27954;DHT22;15290;48.148;17.106;2022-12-20T15:44:32;1.40;99.90
27954;DHT22;15290;48.148;17.106;2022-12-20T15:47:00;1.40;99.90
27954;DHT22;15290;48.148;17.106;2022-12-20T15:49:31;1.40;99.90
27954;DHT22;15290;48.148;17.106;2022-12-20T15:51:57;1.50;99.90
27954;DHT22;15290;48.148;17.106;2022-12-20T15:54:27;1.50;99.90
27954;DHT22;15290;48.148;17.106;2022-12-20T15:56:54;1.50;99.90
27954;DHT22;15290;48.148;17.106;2022-12-20T15:59:20;1.40;99.90
27954;DHT22;15290;48.148;17.106;2022-12-20T16:01:46;1.40;99.90
27954;DHT22;15290;48.148;17.106;2022-12-20T16:04:15;1.40;99.90
27954;DHT22;15290;48.148;17.106;2022-12-20T16:06:45;1.30;99.90
27954;DHT22;15290;48.148;17.106;2022-12-20T16:09:12;1.40;99.90
27954;DHT22;15290;48.148;17.106;2022-12-20T16:11:39;1.30;99.90
27954;DHT22;15290;48.148;17.106;2022-12-20T16:14:05;1.40;99.90
27954;DHT22;15290;48.148;17.106;2022-12-20T16:16:35;1.40;99.90
27954;DHT22;15290;48.148;17.106;2022-12-20T16:19:02;1.40;99.90
27954;DHT22;15290;48.148;17.106;2022-12-20T16:21:44;1.50;99.90
27954;DHT22;15290;48.148;17.106;2022-12-20T16:24:14;1.40;99.90
27954;DHT22;15290;48.148;17.106;2022-12-20T16:26:40;1.40;99.90
27954;DHT22;15290;48.148;17.106;2022-12-20T16:29:31;1.50;99.90
27954;DHT22;15290;48.148;17.106;2022-12-20T16:31:56;1.40;99.90
27954;DHT22;15290;48.148;17.106;2022-12-20T16:34:22;1.40;99.90
27954;DHT22;15290;48.148;17.106;2022-12-20T16:36:48;1.40;99.90
27954;DHT22;15290;48.148;17.106;2022-12-20T16:39:16;1.40;99.90
27954;DHT22;15290;48.148;17.106;2022-12-20T16:41:42;1.50;99.90
27954;DHT22;15290;48.148;17.106;2022-12-20T16:44:14;1.50;99.90
27954;DHT22;15290;48.148;17.106;2022-12-20T16:46:40;1.50;99.90
27954;DHT22;15290;48.148;17.106;2022-12-20T16:49:07;1.50;99.90
27954;DHT22;15290;48.148;17.106;2022-12-20T16:51:38;1.40;99.90
27954;DHT22;15290;48.148;17.106;2022-12-20T16:54:07;1.40;99.90
27954;DHT22;15290;48.148;17.106;2022-12-20T16:56:36;1.50;99.90
27954;DHT22;15290;48.148;17.106;2022-12-20T16:59:02;1.40;99.90
27954;DHT22;15290;48.148;17.106;2022-12-20T17:01:37;1.50;99.90
27954;DHT22;15290;48.148;17.106;2022-12-20T17:04:04;1.40;99.90
27954;DHT22;15290;48.148;17.106;2022-12-20T17:06:30;1.50;99.90
27954;DHT22;15290;48.148;17.106;2022-12-20T17:08:56;1.40;99.90
27954;DHT22;15290;48.148;17.106;2022-12-20T17:11:30;1.40;99.90
27954;DHT22;15290;48.148;17.106;2022-12-20T17:13:59;1.40;99.90
27954;DHT22;15290;48.148;17.106;2022-12-20T17:16:25;1.40;99.90
27954;DHT22;15290;48.148;17.106;2022-12-20T17:18:53;1.40;99.90
27954;DHT22;15290;48.148;17.106;2022-12-20T17:24:05;1.50;99.90
27954;DHT22;15290;48.148;17.106;2022-12-20T17:26:32;1.50;99.90
27954;DHT22;15290;48.148;17.106;2022-12-20T17:29:00;1.40;99.90
27954;DHT22;15290;48.148;17.106;2022-12-20T17:31:34;1.40;99.90
27954;DHT22;15290;48.148;17.106;2022-12-20T17:34:23;1.40;99.90
27954;DHT22;15290;48.148;17.106;2022-12-20T17:36:52;1.40;99.90
27954;DHT22;15290;48.148;17.106;2022-12-20T17:39:19;1.50;99.90
27954;DHT22;15290;48.148;17.106;2022-12-20T17:41:45;1.50;99.90
27954;DHT22;15290;48.148;17.106;2022-12-20T17:44:20;1.50;99.90
27954;DHT22;15290;48.148;17.106;2022-12-20T17:46:49;1.50;99.90
27954;DHT22;15290;48.148;17.106;2022-12-20T17:49:15;1.50;99.90
27954;DHT22;15290;48.148;17.106;2022-12-20T17:51:42;1.50;99.90
27954;DHT22;15290;48.148;17.106;2022-12-20T17:54:23;1.50;99.90
27954;DHT22;15290;48.148;17.106;2022-12-20T17:56:49;1.50;99.90
27954;DHT22;15290;48.148;17.106;2022-12-20T17:59:16;1.50;99.90